Time;durP1;ratioP1;P1;durP2;ratioP2;P2;SDS_P1;SDS_P2;PMS_P1;PMS_P2;Temp;Humidity;BMP_temperature;BMP_pressure;BME280_temperature;BME280_humidity;BME280_pressure;Samples;Min_cycle;Max_cycle;Signal;HPM_P1;HPM_P2
2023/09/18 00:01:56;;;;;;;28.30;21.23;;;16.60;99.90;;;;;;6184096;23;20025;-85
2023/09/18 00:04:30;;;;;;;28.75;22.13;;;16.50;99.90;;;;;;6183732;23;20481;-84
2023/09/18 00:07:16;;;;;;;28.70;21.20;;;16.50;99.90;;;;;;6100006;23;20025;-85
2023/09/18 00:09:54;;;;;;;29.42;21.95;;;16.40;99.90;;;;;;6099304;23;20041;-85
2023/09/18 00:12:35;;;;;;;30.17;21.25;;;16.40;99.90;;;;;;6101609;23;20342;-85
2023/09/18 00:15:00;;;;;;;36.10;24.83;;;16.40;99.90;;;;;;6099994;23;20101;-85
2023/09/18 00:17:42;;;;;;;30.63;22.98;;;16.50;99.90;;;;;;6101353;23;20049;-85
2023/09/18 00:20:09;;;;;;;29.00;22.88;;;16.50;99.90;;;;;;6100999;23;20026;-85
2023/09/18 00:22:34;;;;;;;29.35;22.45;;;16.50;99.90;;;;;;6099478;23;20021;-85
2023/09/18 00:25:15;;;;;;;28.67;22.25;;;16.50;99.90;;;;;;6101405;23;20014;-85
2023/09/18 00:27:52;;;;;;;31.27;23.35;;;16.50;99.90;;;;;;6127251;23;20025;-85
2023/09/18 00:30:33;;;;;;;30.05;22.50;;;16.40;99.90;;;;;;6100367;23;20018;-88
2023/09/18 00:32:59;;;;;;;31.67;23.10;;;16.50;99.90;;;;;;6100672;23;20017;-87
2023/09/18 00:35:38;;;;;;;30.60;24.27;;;17.00;99.90;;;;;;6102413;23;20097;-85
2023/09/18 00:38:19;;;;;;;31.08;24.48;;;16.50;99.90;;;;;;6102496;23;20029;-85
2023/09/18 00:40:45;;;;;;;34.28;25.27;;;16.50;99.90;;;;;;6100331;23;20077;-85
2023/09/18 00:43:26;;;;;;;36.70;26.42;;;16.50;99.90;;;;;;6124390;23;20391;-85
2023/09/18 00:45:52;;;;;;;34.92;25.50;;;16.50;99.90;;;;;;6100375;23;20029;-85
2023/09/18 00:48:24;;;;;;;35.70;27.05;;;16.10;99.90;;;;;;6100695;23;20010;-85
2023/09/18 00:50:56;;;;;;;42.35;29.33;;;16.50;99.90;;;;;;6099378;23;20022;-84
2023/09/18 00:53:25;;;;;;;39.78;27.55;;;16.60;99.90;;;;;;6100527;23;20010;-85
2023/09/18 00:56:03;;;;;;;42.45;29.15;;;16.50;99.90;;;;;;6126166;23;20025;-85
2023/09/18 00:58:41;;;;;;;40.53;28.50;;;17.10;99.90;;;;;;6098968;23;20014;-85
2023/09/18 01:01:22;;;;;;;35.75;27.50;;;16.60;99.90;;;;;;6101223;23;20026;-85
2023/09/18 01:03:54;;;;;;;33.20;25.73;;;16.60;99.90;;;;;;6100043;23;20026;-85
2023/09/18 01:07:29;;;;;;;35.30;26.15;;;16.60;99.90;;;;;;6121589;23;20021;-85
2023/09/18 01:09:55;;;;;;;33.08;25.88;;;16.30;99.90;;;;;;6128708;23;20100;-85
2023/09/18 01:12:51;;;;;;;41.45;27.83;;;16.60;99.90;;;;;;6128149;23;20096;-85
2023/09/18 01:15:32;;;;;;;33.70;26.05;;;16.60;99.90;;;;;;6129334;23;20013;-85
2023/09/18 01:17:58;;;;;;;36.53;27.17;;;16.60;99.90;;;;;;6129447;23;20029;-85
2023/09/18 01:20:27;;;;;;;36.45;26.10;;;16.60;99.90;;;;;;6129301;23;20089;-85
2023/09/18 01:22:56;;;;;;;34.75;25.42;;;16.60;99.90;;;;;;6129684;23;20025;-85
2023/09/18 01:25:40;;;;;;;34.22;25.23;;;16.60;99.90;;;;;;6128544;23;20017;-85
2023/09/18 01:28:16;;;;;;;;;;;16.90;99.90;;;;;;6130166;23;20025;-85
2023/09/18 01:30:48;;;;;;;36.63;26.17;;;16.50;99.90;;;;;;6129109;23;19916;-85
2023/09/18 01:33:24;;;;;;;36.42;25.77;;;16.50;99.90;;;;;;6133990;23;20024;-86
2023/09/18 01:35:58;;;;;;;33.58;24.98;;;16.40;99.90;;;;;;6187710;23;20025;-85
2023/09/18 01:38:44;;;;;;;32.78;25.52;;;16.50;99.90;;;;;;6188755;23;20023;-85
2023/09/18 01:41:19;;;;;;;33.15;25.40;;;16.50;99.90;;;;;;6188416;23;20453;-85
2023/09/18 01:43:51;;;;;;;33.08;24.60;;;16.50;99.90;;;;;;6215494;23;20020;-85
2023/09/18 01:46:23;;;;;;;33.58;23.95;;;16.50;99.90;;;;;;6187619;23;20016;-85
2023/09/18 01:48:52;;;;;;;32.05;23.77;;;16.80;99.90;;;;;;6188699;23;20337;-85
2023/09/18 01:51:21;;;;;;;35.92;25.20;;;16.60;99.90;;;;;;6215196;23;20052;-85
2023/09/18 01:54:00;;;;;;;32.17;24.10;;;16.60;99.90;;;;;;6187276;23;20047;-85
2023/09/18 01:56:35;;;;;;;32.13;24.83;;;16.70;99.90;;;;;;6188867;23;20016;-85
2023/09/18 01:59:00;;;;;;;31.38;24.17;;;17.30;99.90;;;;;;6188970;23;20021;-85
2023/09/18 02:02:17;;;;;;;31.02;22.83;;;16.70;99.90;;;;;;6186556;23;20011;-85
2023/09/18 02:04:45;;;;;;;29.30;22.70;;;16.80;99.90;;;;;;6187195;23;20028;-85
2023/09/18 02:07:10;;;;;;;28.83;22.48;;;17.60;99.90;;;;;;6188083;23;20094;-85
2023/09/18 02:09:48;;;;;;;30.83;22.35;;;16.80;99.90;;;;;;6187676;23;20012;-85
2023/09/18 02:12:17;;;;;;;28.83;21.98;;;16.80;99.90;;;;;;6189160;23;20019;-85
2023/09/18 02:14:45;;;;;;;30.95;22.90;;;16.90;99.90;;;;;;6187364;23;20875;-85
2023/09/18 02:17:10;;;;;;;30.60;21.88;;;16.90;99.90;;;;;;6188463;23;20012;-85
2023/09/18 02:19:36;;;;;;;28.60;21.33;;;16.90;99.90;;;;;;6188354;23;20082;-86
2023/09/18 02:22:11;;;;;;;29.92;21.27;;;16.90;99.90;;;;;;6187920;23;20070;-85
2023/09/18 02:24:36;;;;;;;24.40;19.95;;;16.90;99.90;;;;;;6188934;23;20020;-85
2023/09/18 02:27:11;;;;;;;29.35;22.33;;;17.20;99.90;;;;;;6217505;23;20429;-85
2023/09/18 02:29:37;;;;;;;29.05;21.38;;;16.90;99.90;;;;;;6187345;23;20020;-85
2023/09/18 02:32:06;;;;;;;27.90;20.40;;;16.90;99.90;;;;;;6188593;23;20330;-85
2023/09/18 02:34:33;;;;;;;26.25;20.02;;;16.90;99.90;;;;;;6188060;23;20097;-85
2023/09/18 02:36:59;;;;;;;26.77;20.67;;;16.90;99.90;;;;;;6187058;23;20016;-85
2023/09/18 02:39:37;;;;;;;26.52;19.92;;;17.00;99.90;;;;;;6188427;23;20027;-85
2023/09/18 02:42:02;;;;;;;24.52;19.25;;;16.90;99.90;;;;;;6187812;23;20025;-85
2023/09/18 02:44:28;;;;;;;25.88;19.50;;;16.90;99.90;;;;;;6187502;23;20013;-85
2023/09/18 02:47:03;;;;;;;25.17;19.67;;;17.00;99.90;;;;;;6186873;23;20438;-85
2023/09/18 02:49:29;;;;;;;26.60;20.23;;;16.90;99.90;;;;;;6188703;23;20023;-85
2023/09/18 02:52:04;;;;;;;25.58;19.70;;;17.70;99.90;;;;;;6185895;23;20019;-85
2023/09/18 02:54:30;;;;;;;25.02;19.02;;;16.90;99.90;;;;;;6187856;23;20092;-85
2023/09/18 02:56:56;;;;;;;24.88;18.15;;;17.50;99.90;;;;;;6187277;23;20041;-84
2023/09/18 02:59:32;;;;;;;26.40;18.98;;;17.00;99.90;;;;;;6188709;23;20032;-85
2023/09/18 03:01:57;;;;;;;24.63;18.15;;;16.90;99.90;;;;;;6187257;23;20340;-85
2023/09/18 03:04:38;;;;;;;25.75;18.48;;;17.50;99.90;;;;;;6186785;23;20113;-85
2023/09/18 03:07:05;;;;;;;24.67;17.75;;;17.00;99.90;;;;;;6188620;23;20071;-85
2023/09/18 03:09:43;;;;;;;22.80;17.73;;;17.10;99.90;;;;;;6188260;23;20092;-85
2023/09/18 03:12:08;;;;;;;24.10;17.48;;;17.00;99.90;;;;;;6187682;23;20020;-85
2023/09/18 03:14:43;;;;;;;23.40;17.63;;;17.00;99.90;;;;;;6187672;23;20468;-85
2023/09/18 03:17:10;;;;;;;22.48;16.60;;;17.10;99.90;;;;;;6214776;23;20012;-85
2023/09/18 03:19:36;;;;;;;24.05;16.95;;;17.00;99.90;;;;;;6188163;23;20421;-86
2023/09/18 03:22:26;;;;;;;23.33;17.13;;;17.00;99.90;;;;;;6190555;23;20024;-85
2023/09/18 03:24:58;;;;;;;20.65;16.08;;;17.00;99.90;;;;;;6188711;23;20009;-86
2023/09/18 03:27:28;;;;;;;21.63;15.52;;;17.10;99.90;;;;;;6190472;23;20013;-86
2023/09/18 03:30:00;;;;;;;21.13;15.23;;;17.20;99.90;;;;;;6189903;23;20462;-85
2023/09/18 03:32:42;;;;;;;21.42;15.05;;;17.20;99.90;;;;;;6189911;23;20079;-85
2023/09/18 03:35:17;;;;;;;21.05;15.25;;;17.60;99.90;;;;;;6190735;23;20063;-85
2023/09/18 03:38:02;;;;;;;21.60;15.20;;;17.20;99.90;;;;;;6189627;23;20043;-85
2023/09/18 03:40:27;;;;;;;23.27;15.23;;;17.20;99.90;;;;;;6188885;23;20016;-85
2023/09/18 03:42:53;;;;;;;23.15;15.30;;;17.20;99.90;;;;;;6216307;23;20022;-85
2023/09/18 03:45:25;;;;;;;22.45;14.80;;;17.20;99.90;;;;;;6189775;23;20028;-85
2023/09/18 03:47:51;;;;;;;22.23;15.13;;;17.20;99.90;;;;;;6188909;23;20052;-85
2023/09/18 03:50:35;;;;;;;22.40;14.68;;;17.20;99.90;;;;;;6190025;23;20016;-85
2023/09/18 03:53:00;;;;;;;20.23;13.80;;;17.10;99.90;;;;;;6189389;23;20019;-85
2023/09/18 03:55:35;;;;;;;20.50;15.00;;;17.20;99.90;;;;;;6182309;23;20354;-85
2023/09/18 03:58:05;;;;;;;22.13;14.00;;;17.20;99.90;;;;;;6184866;23;20461;-85
2023/09/18 04:00:30;;;;;;;19.35;13.70;;;17.20;99.90;;;;;;6183639;23;20104;-85
2023/09/18 04:02:56;;;;;;;19.80;13.70;;;17.20;99.90;;;;;;6184125;23;20421;-85
2023/09/18 04:05:47;;;;;;;22.00;14.02;;;17.20;99.90;;;;;;6184082;23;20334;-86
2023/09/18 04:08:26;;;;;;;19.33;13.43;;;17.20;99.90;;;;;;6184164;23;20100;-85
2023/09/18 04:10:55;;;;;;;20.20;13.30;;;17.20;99.90;;;;;;6184568;23;20446;-85
2023/09/18 04:13:39;;;;;;;19.25;13.15;;;17.20;99.90;;;;;;6186518;23;20013;-86
2023/09/18 04:16:04;;;;;;;;;;;17.20;99.90;;;;;;6185309;23;20017;-85
2023/09/18 04:18:45;;;;;;;16.80;12.55;;;17.40;99.90;;;;;;6184820;23;19916;-85
2023/09/18 04:21:11;;;;;;;19.50;12.93;;;17.20;99.90;;;;;;6183751;23;20012;-85
2023/09/18 04:23:57;;;;;;;19.77;12.77;;;17.30;99.90;;;;;;6184474;23;20070;-86
2023/09/18 04:26:50;;;;;;;18.95;12.55;;;17.30;99.90;;;;;;6184873;23;20402;-86
2023/09/18 04:29:16;;;;;;;20.03;12.37;;;17.20;99.90;;;;;;6173312;23;20096;-86
2023/09/18 04:31:42;;;;;;;21.45;13.02;;;17.30;99.90;;;;;;6184558;23;20013;-85
2023/09/18 04:34:14;;;;;;;19.38;13.32;;;17.60;99.90;;;;;;6184335;23;20454;-86
2023/09/18 04:36:40;;;;;;;18.20;12.40;;;17.30;99.90;;;;;;6183510;23;20437;-86
2023/09/18 04:39:18;;;;;;;22.05;12.65;;;17.30;99.90;;;;;;6184902;23;20046;-86
2023/09/18 04:41:50;;;;;;;19.08;12.85;;;17.30;99.90;;;;;;6184591;23;20017;-86
2023/09/18 04:44:17;;;;;;;19.08;11.98;;;17.30;99.90;;;;;;6183916;23;20099;-86
2023/09/18 04:46:46;;;;;;;19.83;12.30;;;17.30;99.90;;;;;;6183815;23;20043;-86
2023/09/18 04:49:12;;;;;;;18.75;11.98;;;17.40;99.90;;;;;;6183527;23;20354;-86
2023/09/18 04:51:38;;;;;;;19.52;12.05;;;17.40;99.90;;;;;;6184498;23;20024;-86
2023/09/18 04:54:16;;;;;;;19.27;11.65;;;17.40;99.90;;;;;;6187554;23;20012;-86
2023/09/18 04:56:42;;;;;;;16.48;11.80;;;17.30;99.90;;;;;;6188395;23;20385;-85
2023/09/18 04:59:20;;;;;;;17.33;11.52;;;17.30;99.90;;;;;;6186613;23;20071;-85
2023/09/18 05:01:49;;;;;;;18.17;12.18;;;17.40;99.90;;;;;;6191914;23;20016;-86
2023/09/18 05:04:14;;;;;;;19.15;11.95;;;17.40;99.90;;;;;;6217329;23;20500;-86
2023/09/18 05:06:41;;;;;;;17.77;11.98;;;17.40;99.90;;;;;;6189946;23;20012;-86
2023/09/18 05:09:07;;;;;;;18.58;11.15;;;17.40;99.90;;;;;;6213745;23;20077;-86
2023/09/18 05:11:34;;;;;;;18.15;11.23;;;17.40;99.90;;;;;;6188402;23;20017;-86
2023/09/18 05:14:12;;;;;;;19.05;11.18;;;17.40;99.90;;;;;;6189220;23;20035;-86
2023/09/18 05:16:38;;;;;;;18.30;11.75;;;17.40;99.90;;;;;;6216150;23;20377;-85
2023/09/18 05:19:13;;;;;;;18.48;11.32;;;18.00;99.90;;;;;;6188329;23;20020;-85
2023/09/18 05:21:54;;;;;;;19.50;11.73;;;17.50;99.90;;;;;;6188139;23;20021;-85
2023/09/18 05:24:35;;;;;;;17.65;11.10;;;18.00;99.90;;;;;;6188048;23;20082;-85
2023/09/18 05:27:17;;;;;;;18.45;10.63;;;17.60;99.90;;;;;;6188681;23;20377;-86
2023/09/18 05:29:45;;;;;;;16.90;10.60;;;17.60;99.90;;;;;;6188273;23;20024;-86
2023/09/18 05:32:17;;;;;;;19.20;10.40;;;17.60;99.90;;;;;;6188068;23;20095;-86
2023/09/18 05:34:45;;;;;;;17.67;10.90;;;17.50;99.90;;;;;;6215296;23;20310;-86
2023/09/18 05:37:17;;;;;;;15.82;10.43;;;17.60;99.90;;;;;;6189566;23;20013;-86
2023/09/18 05:39:49;;;;;;;17.45;10.45;;;17.60;99.90;;;;;;6187530;23;20020;-85
2023/09/18 05:42:24;;;;;;;15.57;10.00;;;17.70;99.90;;;;;;6188713;23;20024;-85
2023/09/18 05:44:59;;;;;;;15.32;10.15;;;17.60;99.90;;;;;;6189016;23;20017;-86
2023/09/18 05:47:38;;;;;;;16.55;10.15;;;18.20;99.90;;;;;;6188388;23;20012;-85
2023/09/18 05:50:29;;;;;;;16.70;9.43;;;17.80;99.90;;;;;;6189529;23;20027;-87
2023/09/18 05:53:05;;;;;;;17.92;9.48;;;17.80;99.90;;;;;;6183251;23;20016;-88
2023/09/18 05:55:32;;;;;;;20.90;9.00;;;17.20;99.90;;;;;;6189959;23;20017;-84
2023/09/18 05:58:24;;;;;;;17.48;9.38;;;17.90;99.90;;;;;;6188539;23;20345;-87
2023/09/18 06:01:02;;;;;;;14.82;9.27;;;18.00;99.90;;;;;;6187488;23;20071;-86
2023/09/18 06:03:43;;;;;;;14.57;9.02;;;18.00;99.90;;;;;;6188836;23;20016;-86
2023/09/18 06:06:09;;;;;;;14.73;8.35;;;18.00;99.90;;;;;;6188301;23;20012;-88
2023/09/18 06:08:50;;;;;;;14.25;8.15;;;18.10;99.90;;;;;;6186335;23;20016;-87
2023/09/18 06:11:22;;;;;;;15.57;8.73;;;18.40;99.90;;;;;;6188232;23;20017;-86
2023/09/18 06:13:54;;;;;;;15.80;8.85;;;18.30;99.90;;;;;;6187277;23;20017;-86
2023/09/18 06:16:44;;;;;;;17.25;9.43;;;18.40;99.90;;;;;;6188961;23;20024;-86
2023/09/18 06:19:19;;;;;;;15.13;8.40;;;18.40;99.90;;;;;;6188163;23;20017;-87
2023/09/18 06:21:54;;;;;;;16.95;9.18;;;18.40;99.90;;;;;;6187144;23;20013;-86
2023/09/18 06:24:19;;;;;;;17.00;8.73;;;18.40;99.90;;;;;;6188082;23;20013;-84
2023/09/18 06:27:00;;;;;;;21.55;8.90;;;18.50;99.90;;;;;;6188328;23;20021;-86
2023/09/18 06:29:26;;;;;;;16.05;8.45;;;18.50;99.90;;;;;;6187379;23;20073;-86
2023/09/18 06:31:51;;;;;;;18.55;8.93;;;18.40;99.90;;;;;;6188311;23;20423;-86
2023/09/18 06:34:23;;;;;;;17.00;8.82;;;18.50;99.90;;;;;;6188599;23;20023;-86
2023/09/18 06:36:49;;;;;;;16.25;9.48;;;18.50;99.90;;;;;;6186496;23;20016;-86
2023/09/18 06:39:15;;;;;;;16.80;9.65;;;18.40;99.90;;;;;;6188764;23;20071;-85
2023/09/18 06:41:43;;;;;;;17.50;9.40;;;18.40;99.90;;;;;;6187021;23;20017;-86
2023/09/18 06:44:23;;;;;;;16.40;9.02;;;18.30;99.90;;;;;;6189133;23;20020;-86
2023/09/18 06:46:54;;;;;;;16.08;9.10;;;18.40;99.90;;;;;;6215135;23;20515;-86
2023/09/18 06:49:33;;;;;;;15.82;9.02;;;18.50;99.90;;;;;;6215010;23;20120;-86
2023/09/18 06:52:06;;;;;;;18.08;9.35;;;18.40;99.90;;;;;;6189191;23;20009;-86
2023/09/18 06:54:40;;;;;;;16.75;9.02;;;18.40;99.90;;;;;;6183673;23;20024;-85
2023/09/18 06:57:06;;;;;;;16.85;9.68;;;18.40;99.90;;;;;;6182300;23;20077;-86
2023/09/18 06:59:33;;;;;;;17.25;9.25;;;18.50;99.90;;;;;;6182746;23;20009;-86
2023/09/18 07:02:02;;;;;;;16.67;9.35;;;18.40;99.90;;;;;;6183192;23;20508;-86
2023/09/18 07:04:31;;;;;;;16.60;9.05;;;18.40;99.90;;;;;;6181409;23;20521;-86
2023/09/18 07:06:57;;;;;;;21.63;9.55;;;18.50;99.90;;;;;;6181120;23;20041;-86
2023/09/18 07:09:25;;;;;;;17.95;10.05;;;18.50;99.90;;;;;;6182893;23;20017;-86
2023/09/18 07:12:03;;;;;;;17.65;9.95;;;18.60;99.90;;;;;;6181334;23;20029;-87
2023/09/18 07:14:37;;;;;;;18.70;10.88;;;18.70;99.90;;;;;;6182995;23;20386;-86
2023/09/18 07:17:04;;;;;;;18.25;10.77;;;18.70;99.90;;;;;;6183860;23;20106;-87
2023/09/18 07:19:36;;;;;;;17.67;10.43;;;18.80;99.90;;;;;;6180829;23;20092;-87
2023/09/18 07:22:05;;;;;;;18.73;11.45;;;18.80;99.90;;;;;;6180759;23;20032;-86
2023/09/18 07:24:30;;;;;;;21.30;11.30;;;18.80;99.90;;;;;;6180596;23;20027;-89
2023/09/18 07:27:08;;;;;;;18.80;12.68;;;18.90;99.90;;;;;;6180874;23;20092;-86
2023/09/18 07:29:40;;;;;;;21.75;12.93;;;18.90;99.90;;;;;;6182684;23;20013;-87
2023/09/18 07:32:14;;;;;;;20.98;12.68;;;18.90;99.90;;;;;;6178754;23;20020;-87
2023/09/18 07:34:43;;;;;;;23.45;15.90;;;19.00;99.90;;;;;;6182840;23;20013;-87
2023/09/18 07:37:12;;;;;;;20.77;13.77;;;19.00;99.90;;;;;;6181948;23;20387;-87
2023/09/18 07:39:52;;;;;;;21.35;13.65;;;19.00;99.90;;;;;;6182047;23;20426;-87
2023/09/18 07:42:18;;;;;;;20.60;14.30;;;19.10;99.90;;;;;;6183093;23;20021;-87
2023/09/18 07:44:53;;;;;;;23.60;14.05;;;19.20;99.90;;;;;;6183033;23;20024;-86
2023/09/18 07:47:24;;;;;;;19.98;13.00;;;19.20;99.90;;;;;;6183828;23;20071;-87
2023/09/18 07:49:59;;;;;;;21.33;12.68;;;19.20;99.90;;;;;;6183545;23;20031;-88
2023/09/18 07:53:09;;;;;;;20.73;12.70;;;19.30;99.90;;;;;;6182892;23;20013;-87
2023/09/18 07:55:58;;;;;;;24.40;12.02;;;19.50;99.90;;;;;;6134455;23;20095;-87
2023/09/18 07:58:27;;;;;;;24.38;13.02;;;19.40;99.90;;;;;;6182882;23;20528;-88
2023/09/18 08:00:57;;;;;;;18.05;10.98;;;19.50;99.90;;;;;;6185843;23;20052;-87
2023/09/18 08:03:26;;;;;;;21.38;12.07;;;19.50;99.90;;;;;;6188735;23;20027;-87
2023/09/18 08:05:55;;;;;;;19.50;11.57;;;19.50;99.90;;;;;;6189327;23;20511;-87
2023/09/18 08:10:49;;;;;;;18.77;11.00;;;19.50;99.90;;;;;;6215648;23;20024;-87
2023/09/18 08:13:24;;;;;;;19.95;11.20;;;19.50;99.90;;;;;;6188951;23;20043;-87
2023/09/18 08:15:52;;;;;;;18.92;10.88;;;19.50;99.90;;;;;;6189381;23;20020;-88
2023/09/18 08:18:34;;;;;;;19.95;11.18;;;19.60;99.90;;;;;;6189716;23;20059;-88
2023/09/18 08:21:06;;;;;;;22.20;11.40;;;19.50;99.90;;;;;;6215841;23;20023;-88
2023/09/18 08:23:40;;;;;;;17.30;10.93;;;19.50;99.90;;;;;;6189602;23;20017;-87
2023/09/18 08:26:07;;;;;;;16.17;10.77;;;19.40;99.90;;;;;;6190186;23;20302;-87
2023/09/18 08:28:43;;;;;;;17.40;11.35;;;19.40;99.90;;;;;;6188916;23;20499;-87
2023/09/18 08:31:18;;;;;;;19.20;11.18;;;19.30;99.90;;;;;;6189725;23;20059;-84
2023/09/18 08:33:50;;;;;;;18.58;11.45;;;19.30;99.90;;;;;;6189462;23;20020;-85
2023/09/18 08:36:34;;;;;;;20.53;10.97;;;19.30;99.90;;;;;;6189178;23;20040;-85
2023/09/18 08:39:06;;;;;;;19.92;11.77;;;19.30;99.90;;;;;;6189218;23;20489;-86
2023/09/18 08:41:42;;;;;;;18.45;12.00;;;19.40;99.90;;;;;;6188742;23;20124;-86
2023/09/18 08:44:09;;;;;;;21.85;11.75;;;19.50;99.90;;;;;;6189619;23;20021;-86
2023/09/18 08:46:37;;;;;;;19.27;11.52;;;19.50;99.90;;;;;;6183256;22;20308;-85
2023/09/18 08:49:12;;;;;;;21.20;12.23;;;19.60;99.90;;;;;;6183505;23;20091;-85
2023/09/18 08:54:10;;;;;;;22.55;13.00;;;19.70;99.90;;;;;;6213146;23;20019;-84
2023/09/18 08:56:36;;;;;;;19.92;12.40;;;19.80;99.90;;;;;;6187850;23;20016;-84
2023/09/18 08:59:21;;;;;;;20.45;12.85;;;19.80;99.90;;;;;;6189847;23;20016;-85
2023/09/18 09:01:46;;;;;;;17.63;12.05;;;19.90;99.90;;;;;;6189313;23;20012;-84
2023/09/18 09:04:27;;;;;;;20.42;12.05;;;20.00;99.90;;;;;;6187774;23;20070;-84
2023/09/18 09:06:52;;;;;;;17.27;11.65;;;20.10;99.90;;;;;;6188914;23;20009;-84
2023/09/18 09:09:19;;;;;;;19.02;10.90;;;20.00;99.90;;;;;;6188924;23;20345;-84
2023/09/18 09:12:00;;;;;;;19.25;10.52;;;20.30;99.90;;;;;;6188432;23;20013;-84
2023/09/18 09:14:28;;;;;;;17.63;9.90;;;20.00;99.90;;;;;;6189337;23;20067;-84
2023/09/18 09:17:03;;;;;;;15.38;9.18;;;20.30;99.90;;;;;;6188040;23;20028;-84
2023/09/18 09:19:38;;;;;;;16.52;8.73;;;20.20;99.90;;;;;;6189274;23;20016;-84
2023/09/18 09:22:24;;;;;;;15.30;8.50;;;20.20;99.90;;;;;;6189337;23;20036;-84
2023/09/18 09:25:21;;;;;;;15.77;7.97;;;20.20;99.90;;;;;;6188045;23;20027;-84
2023/09/18 09:28:04;;;;;;;13.95;7.20;;;20.30;99.90;;;;;;6188969;23;20023;-84
2023/09/18 09:30:45;;;;;;;14.18;7.07;;;20.40;99.90;;;;;;6188156;23;20021;-83
2023/09/18 09:33:12;;;;;;;13.80;7.05;;;20.60;99.90;;;;;;6189122;23;20099;-84
2023/09/18 09:35:57;;;;;;;12.35;7.20;;;20.60;99.90;;;;;;6188986;23;20022;-84
2023/09/18 09:38:44;;;;;;;13.27;7.07;;;20.70;99.90;;;;;;6188264;23;20023;-83
2023/09/18 09:41:14;;;;;;;13.85;6.80;;;20.60;99.90;;;;;;6189207;23;20104;-84
2023/09/18 09:43:43;;;;;;;14.80;7.28;;;20.70;99.90;;;;;;6188432;23;20020;-83
2023/09/18 09:46:22;;;;;;;13.73;7.00;;;20.80;99.90;;;;;;6190532;23;20515;-83
2023/09/18 09:49:19;;;;;;;11.93;6.40;;;20.90;99.90;;;;;;6191119;23;20013;-83
2023/09/18 09:51:46;;;;;;;11.10;6.13;;;21.10;99.90;;;;;;6188047;23;20009;-84
2023/09/18 09:54:13;;;;;;;12.13;6.03;;;21.20;99.90;;;;;;6188937;23;20009;-83
2023/09/18 09:57:04;;;;;;;11.27;6.18;;;21.30;99.90;;;;;;6188584;23;20013;-83
2023/09/18 09:59:33;;;;;;;10.65;5.70;;;21.40;99.90;;;;;;6188539;23;20016;-84
2023/09/18 10:02:19;;;;;;;10.30;5.15;;;21.60;99.90;;;;;;6177881;23;20311;-84
2023/09/18 10:04:48;;;;;;;11.02;5.00;;;21.60;99.90;;;;;;6182985;23;20083;-84
2023/09/18 10:07:32;;;;;;;11.55;5.50;;;21.50;99.90;;;;;;6182921;23;20096;-83
2023/09/18 10:09:57;;;;;;;;;;;21.60;99.90;;;;;;6184054;23;20013;-84
2023/09/18 10:12:25;;;;;;;12.60;5.68;;;21.50;99.90;;;;;;6184010;23;20062;-84
2023/09/18 10:15:04;;;;;;;13.27;5.20;;;21.50;99.90;;;;;;6182693;23;20029;-83
2023/09/18 10:17:32;;;;;;;9.93;4.88;;;21.60;99.90;;;;;;6183861;23;20028;-83
2023/09/18 10:20:21;;;;;;;10.27;4.82;;;21.50;99.90;;;;;;6182399;23;20047;-83
2023/09/18 10:22:54;;;;;;;10.70;4.55;;;21.70;99.90;;;;;;6183151;23;20074;-83
2023/09/18 10:25:38;;;;;;;10.23;4.68;;;22.00;99.90;;;;;;6186496;23;20017;-83
2023/09/18 10:28:07;;;;;;;9.55;4.55;;;22.00;99.90;;;;;;6187537;23;20070;-83
2023/09/18 10:30:45;;;;;;;10.20;4.80;;;22.00;99.90;;;;;;6186273;23;20013;-83
2023/09/18 10:33:11;;;;;;;9.40;4.20;;;22.00;99.90;;;;;;6188688;23;20016;-84
2023/09/18 10:35:53;;;;;;;11.43;4.25;;;22.10;99.90;;;;;;6187505;23;20405;-84
2023/09/18 10:38:19;;;;;;;8.15;3.88;;;22.10;99.90;;;;;;6188398;23;20016;-83
2023/09/18 10:41:00;;;;;;;11.60;5.00;;;22.20;99.90;;;;;;6188199;23;20077;-83
2023/09/18 10:43:26;;;;;;;9.43;4.40;;;22.20;99.90;;;;;;6188537;23;20524;-83
2023/09/18 10:45:58;;;;;;;10.90;4.40;;;21.80;99.90;;;;;;6188102;23;20051;-84
2023/09/18 10:48:25;;;;;;;9.65;4.03;;;21.60;99.90;;;;;;6187605;23;20433;-82
2023/09/18 10:50:51;;;;;;;9.32;3.80;;;22.00;99.90;;;;;;6188625;23;20012;-83
2023/09/18 10:53:25;;;;;;;11.20;3.97;;;22.00;99.90;;;;;;6188252;23;20445;-83
2023/09/18 10:55:52;;;;;;;10.23;4.00;;;21.90;99.90;;;;;;6187183;23;20021;-83
2023/09/18 10:58:49;;;;;;;8.90;3.90;;;22.20;99.90;;;;;;6188551;23;20023;-83
2023/09/18 11:01:17;;;;;;;8.77;3.70;;;22.40;99.90;;;;;;6181792;23;20020;-83
2023/09/18 11:03:50;;;;;;;8.32;3.67;;;22.60;99.90;;;;;;6186861;23;20348;-83
2023/09/18 11:06:17;;;;;;;;;;;22.70;99.90;;;;;;6188474;23;20021;-82
2023/09/18 11:09:09;;;;;;;10.65;3.60;;;23.00;99.90;;;;;;6187979;23;19957;-82
2023/09/18 11:11:35;;;;;;;8.55;3.40;;;23.20;99.90;;;;;;6188123;23;20020;-83
2023/09/18 11:14:15;;;;;;;10.00;3.13;;;23.10;99.90;;;;;;6187081;23;20103;-82
2023/09/18 11:16:41;;;;;;;8.18;3.15;;;23.30;99.90;;;;;;6187313;23;20052;-83
2023/09/18 11:19:29;;;;;;;10.45;3.00;;;23.50;99.90;;;;;;6186495;23;20013;-82
2023/09/18 11:22:39;;;;;;;8.60;3.10;;;23.60;99.90;;;;;;6188039;23;20024;-82
2023/09/18 11:25:41;;;;;;;8.75;3.10;;;23.90;99.90;;;;;;6067837;23;20015;-83
2023/09/18 11:28:16;;;;;;;8.23;3.10;;;23.80;99.90;;;;;;6085018;23;20398;-83
2023/09/18 11:31:00;;;;;;;9.98;3.38;;;23.90;99.90;;;;;;6157714;23;20473;-83
2023/09/18 11:33:48;;;;;;;8.95;3.08;;;23.50;99.90;;;;;;6159204;23;20014;-84
2023/09/18 11:36:43;;;;;;;8.18;3.10;;;23.20;99.90;;;;;;6158318;23;20460;-82
2023/09/18 11:39:36;;;;;;;9.98;3.65;;;23.10;99.90;;;;;;6130870;23;20024;-84
2023/09/18 11:42:36;;;;;;;8.85;3.00;;;23.10;99.90;;;;;;6161098;23;20083;-84
2023/09/18 11:45:03;;;;;;;10.82;3.47;;;23.00;99.90;;;;;;6159419;23;20028;-83
2023/09/18 11:47:29;;;;;;;10.90;2.92;;;23.20;99.90;;;;;;6178840;23;20021;-84
2023/09/18 11:50:00;;;;;;;7.05;2.95;;;23.20;99.90;;;;;;6178127;23;20019;-83
2023/09/18 11:52:34;;;;;;;10.05;2.70;;;23.40;99.90;;;;;;6189193;23;20083;-83
2023/09/18 11:55:06;;;;;;;9.55;3.25;;;23.60;99.90;;;;;;6184421;23;20071;-83
2023/09/18 11:57:56;;;;;;;7.88;2.45;;;23.90;99.90;;;;;;6185185;23;20100;-83
2023/09/18 12:00:27;;;;;;;7.57;3.00;;;24.00;99.90;;;;;;6183816;23;20059;-84
2023/09/18 12:02:57;;;;;;;7.05;2.58;;;24.10;99.90;;;;;;6184309;23;20373;-84
2023/09/18 12:05:26;;;;;;;9.55;2.67;;;24.20;99.90;;;;;;6183840;23;20454;-83
2023/09/18 12:08:06;;;;;;;9.02;2.80;;;24.10;99.90;;;;;;6184215;23;20057;-83
2023/09/18 12:10:32;;;;;;;7.80;2.80;;;24.30;99.90;;;;;;6185405;23;20068;-83
2023/09/18 12:12:58;;;;;;;7.40;2.60;;;24.30;99.90;;;;;;6185647;23;20432;-83
2023/09/18 12:15:40;;;;;;;8.65;2.63;;;24.40;99.90;;;;;;6184312;23;20013;-84
2023/09/18 12:18:22;;;;;;;7.68;2.53;;;24.20;99.90;;;;;;6184558;23;20028;-83
2023/09/18 12:20:58;;;;;;;7.67;2.60;;;24.00;99.90;;;;;;6183833;23;20024;-83
2023/09/18 12:23:38;;;;;;;10.50;3.00;;;23.70;99.90;;;;;;6185108;23;20021;-83
2023/09/18 12:26:15;;;;;;;9.15;2.63;;;23.60;99.90;;;;;;6186358;23;20025;-84
2023/09/18 12:28:42;;;;;;;8.10;2.63;;;23.50;99.90;;;;;;6183628;23;20024;-84
2023/09/18 12:31:13;;;;;;;8.77;2.70;;;23.20;99.90;;;;;;6186651;23;20020;-83
2023/09/18 12:33:40;;;;;;;8.45;2.83;;;23.10;99.90;;;;;;6183128;23;20049;-83
2023/09/18 12:36:19;;;;;;;9.20;2.50;;;22.90;99.90;;;;;;6184719;23;20048;-83
2023/09/18 12:38:56;;;;;;;7.88;2.60;;;22.90;99.90;;;;;;6184288;23;20013;-83
2023/09/18 12:41:31;;;;;;;7.28;2.47;;;22.80;99.90;;;;;;6184272;23;20028;-84
2023/09/18 12:44:06;;;;;;;9.45;2.78;;;22.90;99.90;;;;;;6191197;23;20450;-82
2023/09/18 12:46:33;;;;;;;8.40;2.85;;;22.90;99.90;;;;;;6189939;23;20454;-83
2023/09/18 12:48:59;;;;;;;8.35;2.85;;;22.80;99.90;;;;;;6183903;23;20017;-83
2023/09/18 12:51:34;;;;;;;9.30;2.88;;;22.70;99.90;;;;;;6184597;23;20024;-83
2023/09/18 12:54:01;;;;;;;11.85;2.80;;;22.70;99.90;;;;;;6184339;23;20088;-83
2023/09/18 12:56:26;;;;;;;8.57;2.75;;;22.70;99.90;;;;;;6183766;23;20017;-83
2023/09/18 12:58:52;;;;;;;9.30;2.95;;;22.90;99.90;;;;;;6184160;23;20021;-84
2023/09/18 13:01:27;;;;;;;9.20;2.83;;;23.00;99.90;;;;;;6186406;23;20021;-83
2023/09/18 13:03:55;;;;;;;9.93;3.13;;;23.20;99.90;;;;;;6183532;23;20017;-83
2023/09/18 13:06:21;;;;;;;10.80;3.08;;;23.40;99.90;;;;;;6185008;23;20024;-84
2023/09/18 13:08:53;;;;;;;10.10;3.08;;;23.80;99.90;;;;;;6185058;23;20017;-83
2023/09/18 13:11:18;;;;;;;12.23;3.13;;;24.10;99.90;;;;;;6184476;23;20017;-84
2023/09/18 13:16:16;;;;;;;8.05;3.00;;;24.40;99.90;;;;;;6214023;23;20025;-84